Time;durP1;ratioP1;P1;durP2;ratioP2;P2;SDS_P1;SDS_P2;PMS_P1;PMS_P2;Temp;Humidity;BMP_temperature;BMP_pressure;BME280_temperature;BME280_humidity;BME280_pressure;Samples;Min_cycle;Max_cycle;Signal;HPM_P1;HPM_P2
2022/07/03 00:01:03;;;;;;;13.43;4.28;;;;;;;22.04;100.00;94818.38;4984813;28;20480;-89
2022/07/03 00:03:29;;;;;;;11.80;4.53;;;;;;;22.20;100.00;94823.09;5000900;28;20026;-89
2022/07/03 00:05:54;;;;;;;11.02;4.32;;;;;;;21.94;100.00;94822.25;5018244;28;20026;-90
2022/07/03 00:08:20;;;;;;;8.48;4.15;;;;;;;21.83;100.00;94821.88;4985736;28;20040;-89
2022/07/03 00:10:46;;;;;;;14.25;4.53;;;;;;;21.86;100.00;94825.78;4984878;28;20040;-90
2022/07/03 00:13:11;;;;;;;14.50;4.07;;;;;;;21.91;100.00;94822.13;4973176;28;20502;-90
2022/07/03 00:15:38;;;;;;;12.73;4.15;;;;;;;22.05;100.00;94819.94;4973425;28;20457;-89
2022/07/03 00:18:04;;;;;;;10.80;4.07;;;;;;;22.14;100.00;94815.31;4970308;28;20034;-89
2022/07/03 00:20:33;;;;;;;7.55;3.60;;;;;;;22.18;100.00;94821.53;4965456;28;20442;-90
2022/07/03 00:23:01;;;;;;;8.23;3.75;;;;;;;22.09;100.00;94823.50;4979391;28;20100;-90
2022/07/03 00:25:31;;;;;;;11.35;4.07;;;;;;;21.97;100.00;94821.59;4986006;28;20035;-89
2022/07/03 00:27:57;;;;;;;12.10;4.70;;;;;;;22.00;100.00;94820.94;4968355;28;20416;-90
2022/07/03 00:30:23;;;;;;;14.48;3.75;;;;;;;21.99;100.00;94821.28;4964997;28;20081;-90
2022/07/03 00:32:51;;;;;;;10.48;3.85;;;;;;;22.04;100.00;94818.38;4964394;28;20030;-89
2022/07/03 00:35:17;;;;;;;8.88;3.80;;;;;;;21.80;100.00;94822.53;4964700;28;20125;-90
2022/07/03 00:37:43;;;;;;;7.55;4.10;;;;;;;21.48;100.00;94816.81;4965062;28;20380;-90
2022/07/03 00:40:09;;;;;;;11.25;4.10;;;;;;;21.40;100.00;94823.78;4980706;28;20065;-89
2022/07/03 00:42:38;;;;;;;10.02;4.20;;;;;;;21.35;100.00;94823.97;4981038;28;20068;-90
2022/07/03 00:45:06;;;;;;;9.20;4.30;;;;;;;21.45;100.00;94831.59;4964287;28;20026;-90
2022/07/03 00:47:35;;;;;;;11.27;4.68;;;;;;;21.43;100.00;94825.00;4964841;28;20031;-89
2022/07/03 00:50:07;;;;;;;8.70;4.18;;;;;;;21.63;100.00;94828.78;4965086;28;20443;-89
2022/07/03 00:52:33;;;;;;;13.45;4.07;;;;;;;21.62;100.00;94821.88;4964770;28;20030;-90
2022/07/03 00:55:00;;;;;;;12.38;4.00;;;;;;;21.82;100.00;94820.34;4980611;28;20441;-90
2022/07/03 00:57:28;;;;;;;14.23;4.20;;;;;;;21.88;100.00;94819.00;4964427;28;20042;-89
2022/07/03 00:59:54;;;;;;;11.82;3.90;;;;;;;21.89;100.00;94820.56;4980513;28;20451;-88
2022/07/03 01:02:29;;;;;;;9.23;3.92;;;;;;;21.94;100.00;94821.47;4964925;28;20034;-89
2022/07/03 01:05:03;;;;;;;9.65;4.20;;;;;;;21.77;100.00;94809.09;4980534;28;20034;-89
2022/07/03 01:07:48;;;;;;;14.00;3.90;;;;;;;21.70;100.00;94813.03;4964896;28;20034;-90
2022/07/03 01:10:20;;;;;;;8.13;3.80;;;;;;;21.70;100.00;94818.38;4964383;28;20030;-90
2022/07/03 01:13:19;;;;;;;16.60;3.92;;;;;;;21.59;100.00;94823.31;4980174;28;20030;-89
2022/07/03 01:16:10;;;;;;;10.77;3.75;;;;;;;21.61;100.00;94815.75;4964883;28;20399;-90
2022/07/03 01:18:50;;;;;;;8.57;3.53;;;;;;;21.63;100.00;94817.31;4963808;28;20053;-90
2022/07/03 01:21:20;;;;;;;11.43;4.20;;;;;;;21.46;100.00;94825.16;4980273;28;20073;-90
2022/07/03 01:23:57;;;;;;;10.63;3.85;;;;;;;21.46;100.00;94811.03;4963925;28;20038;-90
2022/07/03 01:26:24;;;;;;;12.77;4.18;;;;;;;21.22;100.00;94817.78;4964413;28;20030;-90
2022/07/03 01:28:49;;;;;;;17.33;4.70;;;;;;;21.17;100.00;94820.66;4964314;28;20069;-90
2022/07/03 01:31:22;;;;;;;10.32;4.53;;;;;;;21.07;100.00;94816.47;4979972;28;20054;-89
2022/07/03 01:33:49;;;;;;;9.60;4.07;;;;;;;;;;4964219;28;20450;-90
2022/07/03 01:36:16;;;;;;;9.07;3.85;;;;;;;21.02;100.00;94811.34;4980087;28;20104;-90
2022/07/03 01:38:42;;;;;;;9.10;3.97;;;;;;;20.99;100.00;94807.44;4964278;28;20038;-90
2022/07/03 01:41:11;;;;;;;10.57;4.13;;;;;;;20.99;100.00;94806.66;4963907;28;20041;-90
2022/07/03 01:43:39;;;;;;;10.05;3.75;;;;;;;21.16;100.00;94811.88;4963656;28;20039;-89
2022/07/03 01:46:05;;;;;;;17.65;4.30;;;;;;;21.13;100.00;94806.41;4980356;28;20030;-90
2022/07/03 01:48:32;;;;;;;9.60;3.95;;;;;;;20.95;100.00;94806.53;4979805;28;20046;-90
2022/07/03 01:50:58;;;;;;;8.32;3.90;;;;;;;21.11;100.00;94806.72;4963573;28;20042;-90
2022/07/03 01:53:28;;;;;;;8.02;3.90;;;;;;;21.10;100.00;94801.75;4963727;28;20128;-90
2022/07/03 01:55:59;;;;;;;9.23;3.47;;;;;;;20.98;100.00;94799.75;4979780;28;20037;-89
2022/07/03 01:58:25;;;;;;;8.00;3.90;;;;;;;20.91;100.00;94800.28;4963992;28;20470;-90
2022/07/03 02:01:06;;;;;;;14.68;4.18;;;;;;;20.83;100.00;94796.56;4963559;28;20034;-90
2022/07/03 02:03:34;;;;;;;23.45;4.97;;;;;;;20.60;100.00;94798.69;4963544;28;20041;-90
2022/07/03 02:06:07;;;;;;;11.40;4.13;;;;;;;20.81;100.00;94792.69;4963656;28;20037;-90
2022/07/03 02:08:57;;;;;;;7.33;4.17;;;;;;;20.79;100.00;94798.28;4963701;28;20041;-89
2022/07/03 02:11:53;;;;;;;9.73;4.22;;;;;;;20.79;100.00;94786.84;4979795;28;20030;-89
2022/07/03 02:14:23;;;;;;;9.70;4.03;;;;;;;20.87;100.00;94796.69;4947638;28;20153;-90
2022/07/03 02:16:57;;;;;;;10.00;4.22;;;;;;;20.77;100.00;94795.16;4997046;28;20428;-90
2022/07/03 02:19:35;;;;;;;10.85;4.45;;;;;;;20.75;100.00;94797.38;4979978;28;20034;-89
2022/07/03 02:22:02;;;;;;;10.57;4.20;;;;;;;20.71;100.00;94794.56;4980121;28;20022;-90
2022/07/03 02:24:31;;;;;;;13.75;4.40;;;;;;;20.60;100.00;94794.16;4979305;28;20121;-89
2022/07/03 02:27:04;;;;;;;24.83;4.35;;;;;;;20.56;100.00;94797.78;4963756;28;20331;-89
2022/07/03 02:29:41;;;;;;;7.00;4.15;;;;;;;20.56;100.00;94795.13;4981419;28;20026;-90
2022/07/03 02:32:11;;;;;;;10.98;4.03;;;;;;;20.59;100.00;94789.94;4967567;28;20053;-89
2022/07/03 02:34:38;;;;;;;12.82;3.70;;;;;;;20.56;100.00;94793.22;4967317;28;20038;-90
2022/07/03 02:37:18;;;;;;;10.23;4.75;;;;;;;20.38;100.00;94787.22;4966727;28;20034;-89
2022/07/03 02:40:05;;;;;;;8.40;3.67;;;;;;;20.47;100.00;94779.19;4983158;28;20340;-90
2022/07/03 02:43:11;;;;;;;16.83;3.88;;;;;;;20.60;100.00;94780.06;5000187;28;20030;-90
2022/07/03 02:45:55;;;;;;;9.23;4.28;;;;;;;20.46;100.00;94789.03;4944795;28;20039;-90
2022/07/03 02:48:34;;;;;;;12.48;4.20;;;;;;;20.49;100.00;94791.06;4967483;28;20117;-89
2022/07/03 02:51:05;;;;;;;11.75;3.88;;;;;;;20.43;100.00;94791.56;4982952;28;20037;-89
2022/07/03 02:53:38;;;;;;;13.52;4.72;;;;;;;20.42;100.00;94795.31;4973374;28;20064;-90
2022/07/03 02:56:15;;;;;;;8.40;4.03;;;;;;;20.52;100.00;94794.19;4995396;28;20026;-89
2022/07/03 02:59:02;;;;;;;8.00;3.67;;;;;;;20.48;100.00;94794.06;4972035;28;20033;-90
2022/07/03 03:01:38;;;;;;;8.93;4.45;;;;;;;20.57;100.00;94791.34;4999808;28;20033;-89
2022/07/03 03:04:19;;;;;;;7.93;3.72;;;;;;;20.38;100.00;94784.56;4999084;28;20439;-92
2022/07/03 03:06:56;;;;;;;6.05;3.65;;;;;;;20.37;100.00;94777.66;5002384;28;20029;-92
2022/07/03 03:09:27;;;;;;;9.93;3.90;;;;;;;20.40;100.00;94782.34;4986488;28;20033;-92
2022/07/03 03:12:45;;;;;;;14.70;4.03;;;;;;;20.32;100.00;94781.28;5003080;28;20081;-92
2022/07/03 03:15:12;;;;;;;12.60;3.70;;;;;;;20.18;100.00;94780.72;4978950;28;20034;-92
2022/07/03 03:17:51;;;;;;;9.82;4.20;;;;;;;20.15;100.00;94782.13;5001816;28;20041;-91
2022/07/03 03:20:18;;;;;;;8.00;3.80;;;;;;;20.40;100.00;94782.34;5001728;28;20104;-91
2022/07/03 03:22:56;;;;;;;8.23;3.40;;;;;;;20.27;100.00;94784.09;5001959;28;20342;-92
2022/07/03 03:25:21;;;;;;;9.82;3.75;;;;;;;20.27;100.00;94780.69;5001869;28;20149;-92
2022/07/03 03:27:47;;;;;;;12.57;3.75;;;;;;;20.26;100.00;94781.78;4985116;28;20034;-92
2022/07/03 03:30:12;;;;;;;9.77;3.72;;;;;;;20.49;100.00;94787.63;4985512;28;20025;-92
2022/07/03 03:32:38;;;;;;;11.05;3.83;;;;;;;20.28;100.00;94779.56;5001286;28;20347;-92
2022/07/03 03:35:04;;;;;;;5.82;3.72;;;;;;;20.43;100.00;94788.88;4985322;28;20022;-92
2022/07/03 03:37:30;;;;;;;9.90;4.05;;;;;;;20.51;100.00;94795.28;5001417;28;20332;-91
2022/07/03 03:39:56;;;;;;;10.38;3.42;;;;;;;20.68;100.00;94797.88;5001543;28;20040;-92
2022/07/03 03:42:21;;;;;;;10.02;4.55;;;;;;;20.82;100.00;94800.31;4984782;28;20037;-91
2022/07/03 03:44:47;;;;;;;11.13;3.88;;;;;;;20.89;100.00;94795.28;4985221;28;20328;-94
2022/07/03 03:47:12;;;;;;;8.40;3.95;;;;;;;21.05;100.00;94792.06;4985103;28;20441;-92
2022/07/03 03:49:38;;;;;;;11.15;3.30;;;;;;;20.98;100.00;94787.25;4985365;28;20030;-91
2022/07/03 03:52:04;;;;;;;9.60;3.53;;;;;;;20.73;100.00;94792.34;4985149;28;20136;-92
2022/07/03 03:54:29;;;;;;;8.73;3.88;;;;;;;20.81;100.00;94798.00;5001153;28;20032;-92
2022/07/03 03:56:55;;;;;;;6.72;3.70;;;;;;;20.89;100.00;94794.50;4985275;28;20034;-93
2022/07/03 03:59:21;;;;;;;8.90;3.58;;;;;;;20.94;100.00;94799.63;5001015;28;20124;-91
2022/07/03 04:01:47;;;;;;;11.93;3.58;;;;;;;20.80;100.00;94799.03;4984877;28;20143;-92
2022/07/03 04:04:17;;;;;;;8.45;3.80;;;;;;;20.72;100.00;94798.78;4984911;28;20525;-92
2022/07/03 04:06:43;;;;;;;6.68;3.47;;;;;;;20.66;100.00;94802.75;4985288;28;20342;-92
2022/07/03 04:09:08;;;;;;;7.22;3.58;;;;;;;20.71;100.00;94804.41;4984706;28;20431;-92
2022/07/03 04:11:34;;;;;;;10.10;3.97;;;;;;;20.94;100.00;94798.84;5000822;28;20143;-92
2022/07/03 04:13:59;;;;;;;8.57;4.00;;;;;;;20.64;100.00;94794.28;4984778;28;20026;-92
2022/07/03 04:16:25;;;;;;;8.88;3.70;;;;;;;20.55;100.00;94802.31;5000651;28;20052;-92
2022/07/03 04:18:50;;;;;;;10.90;3.53;;;;;;;20.68;100.00;94802.41;4984675;28;20360;-92
2022/07/03 04:21:16;;;;;;;8.55;3.63;;;;;;;20.73;100.00;94805.66;4984597;28;20069;-92
2022/07/03 04:23:51;;;;;;;10.02;3.83;;;;;;;20.79;100.00;94800.16;4984422;28;20191;-92
2022/07/03 04:26:38;;;;;;;7.25;3.40;;;;;;;20.93;100.00;94803.38;5000860;28;20033;-92
2022/07/03 04:29:04;;;;;;;5.57;3.45;;;;;;;21.05;100.00;94792.06;4999466;28;20048;-92
2022/07/03 04:31:32;;;;;;;11.65;3.83;;;;;;;21.10;100.00;94802.50;5000726;28;20325;-93
2022/07/03 04:33:58;;;;;;;9.80;3.90;;;;;;;21.02;100.00;94795.38;4984289;28;20037;-93
2022/07/03 04:36:23;;;;;;;8.27;3.50;;;;;;;21.11;100.00;94804.06;4984285;28;20030;-92
2022/07/03 04:38:49;;;;;;;8.45;3.63;;;;;;;21.05;100.00;94803.47;5000255;28;20075;-93
2022/07/03 04:41:14;;;;;;;8.23;3.88;;;;;;;21.06;100.00;94806.94;4984217;28;20026;-93
2022/07/03 04:43:40;;;;;;;10.07;3.90;;;;;;;21.21;100.00;94808.22;4984044;28;20022;-92
2022/07/03 04:46:05;;;;;;;10.75;3.92;;;;;;;21.35;100.00;94807.19;5000157;28;20026;-93
2022/07/03 04:48:31;;;;;;;8.25;3.67;;;;;;;21.33;100.00;94805.63;4984102;28;20030;-93
2022/07/03 04:50:57;;;;;;;10.20;3.60;;;;;;;21.40;100.00;94804.34;5000001;28;20049;-92
2022/07/03 04:53:22;;;;;;;17.58;3.70;;;;;;;21.51;100.00;94812.72;4983130;28;20026;-93
2022/07/03 04:55:48;;;;;;;8.85;3.53;;;;;;;21.37;100.00;94811.09;4984419;28;20029;-93
2022/07/03 04:58:13;;;;;;;8.55;3.58;;;;;;;21.37;100.00;94800.44;4983972;28;20025;-93
2022/07/03 05:00:42;;;;;;;7.07;3.28;;;;;;;21.43;100.00;94803.69;4999998;28;20057;-93
2022/07/03 05:06:30;;;;;;;8.43;3.38;;;;;;;21.73;100.00;94807.09;5011490;28;20033;-92
2022/07/03 05:08:56;;;;;;;7.53;3.50;;;;;;;21.92;100.00;94807.69;4983373;28;20034;-91
2022/07/03 05:11:28;;;;;;;10.50;3.58;;;;;;;21.99;100.00;94800.69;5017494;28;20112;-92
2022/07/03 05:13:54;;;;;;;16.00;3.65;;;;;;;22.12;100.00;94803.41;4984043;28;20319;-93
2022/07/03 05:16:19;;;;;;;13.30;3.83;;;;;;;22.12;100.00;94806.06;4983660;28;20032;-93
2022/07/03 05:18:45;;;;;;;6.75;3.90;;;;;;;22.35;100.00;94805.66;4999692;28;20080;-92
2022/07/03 05:21:10;;;;;;;9.52;3.47;;;;;;;22.32;100.00;94801.75;4999754;28;20026;-93
2022/07/03 05:23:35;;;;;;;12.60;3.60;;;;;;;22.46;100.00;94793.44;4999563;28;20047;-92
2022/07/03 05:26:01;;;;;;;7.10;3.42;;;;;;;22.63;100.00;94797.81;5017207;28;20029;-93
2022/07/03 05:28:26;;;;;;;11.10;4.13;;;;;;;22.43;100.00;94808.22;5017031;28;20026;-92
2022/07/03 05:32:07;;;;;;;;;;;;;;;;;;;;;
2022/07/03 05:41:30;;;;;;;8.15;3.38;;;;;;;23.01;100.00;94815.38;4862462;29;20113;-92
2022/07/03 05:43:58;;;;;;;6.55;3.38;;;;;;;23.18;100.00;94810.88;4862468;29;20089;-92
2022/07/03 05:46:38;;;;;;;7.18;3.17;;;;;;;23.27;100.00;94805.44;4847264;29;20044;-92
2022/07/03 05:49:44;;;;;;;9.75;3.25;;;;;;;23.39;100.00;94818.00;4862576;29;20540;-92
2022/07/03 05:52:22;;;;;;;11.98;3.22;;;;;;;23.51;100.00;94815.28;4774496;30;20050;-92
2022/07/03 05:58:56;;;;;;;12.18;3.70;;;;;;;23.62;100.00;94817.47;4789548;30;20346;-92
2022/07/03 06:04:52;;;;;;;9.45;3.95;;;;;;;23.66;100.00;94815.69;4826048;29;20139;-92
2022/07/03 06:11:00;;;;;;;8.40;3.75;;;;;;;23.92;100.00;94825.16;4840738;29;20136;-92
2022/07/03 06:13:31;;;;;;;7.35;3.50;;;;;;;23.94;100.00;94820.25;4865771;29;20029;-92
2022/07/03 06:15:57;;;;;;;17.42;4.00;;;;;;;23.62;100.00;94826.31;4889181;29;20072;-91
2022/07/03 06:18:22;;;;;;;7.55;3.63;;;;;;;23.88;100.00;94825.06;4903044;29;20063;-91
2022/07/03 06:20:48;;;;;;;9.57;3.80;;;;;;;24.13;100.00;94819.63;4899172;29;20036;-92
2022/07/03 06:23:13;;;;;;;10.18;3.42;;;;;;;24.03;100.00;94828.16;4967284;28;20037;-91
2022/07/03 06:25:38;;;;;;;9.73;3.75;;;;;;;24.26;100.00;94815.75;5002567;28;20026;-92
2022/07/03 06:28:04;;;;;;;11.85;3.30;;;;;;;24.49;100.00;94823.22;5002547;28;20034;-91
2022/07/03 06:30:29;;;;;;;11.20;3.40;;;;;;;24.36;100.00;94827.09;5002549;28;20033;-91
2022/07/03 06:32:55;;;;;;;6.72;3.38;;;;;;;24.56;100.00;94822.59;4986459;28;20028;-92
2022/07/03 06:35:20;;;;;;;12.55;3.65;;;;;;;24.72;100.00;94822.56;5019991;28;20127;-92
2022/07/03 06:37:46;;;;;;;12.05;3.67;;;;;;;24.77;100.00;94824.25;5002662;28;20107;-92
2022/07/03 06:40:11;;;;;;;6.47;3.60;;;;;;;24.62;100.00;94828.47;5002425;28;20030;-91
2022/07/03 06:42:36;;;;;;;9.73;3.78;;;;;;;25.06;100.00;94825.69;4985992;28;20033;-91
2022/07/03 06:45:02;;;;;;;7.22;3.45;;;;;;;24.90;100.00;94825.69;5001963;28;20049;-92
2022/07/03 06:47:28;;;;;;;10.18;3.60;;;;;;;25.08;100.00;94822.63;5002220;28;20022;-91
2022/07/03 06:49:53;;;;;;;11.05;4.20;;;;;;;25.08;100.00;94819.97;5002448;28;20026;-91
2022/07/03 06:52:18;;;;;;;8.10;3.38;;;;;;;25.20;100.00;94824.44;5020037;28;20445;-92
2022/07/03 06:54:44;;;;;;;6.45;3.00;;;;;;;25.31;100.00;94821.97;5002093;28;20018;-92
2022/07/03 06:57:13;;;;;;;7.68;3.58;;;;;;;25.33;100.00;94823.19;4985944;28;20029;-92
2022/07/03 06:59:39;;;;;;;9.93;3.70;;;;;;;25.57;100.00;94824.06;5002001;28;20022;-91
2022/07/03 07:02:08;;;;;;;11.18;3.20;;;;;;;25.65;100.00;94825.78;5002093;28;20032;-91
2022/07/03 07:04:34;;;;;;;7.68;3.40;;;;;;;25.82;100.00;94823.78;5019299;28;20461;-91
2022/07/03 07:06:59;;;;;;;8.75;3.83;;;;;;;25.95;100.00;94822.50;5001992;28;20061;-91
2022/07/03 07:09:25;;;;;;;7.75;3.60;;;;;;;26.10;100.00;94828.13;5001858;28;20038;-91
2022/07/03 07:11:50;;;;;;;6.00;3.08;;;;;;;25.86;100.00;94826.53;5019401;28;20184;-91
2022/07/03 07:14:16;;;;;;;8.45;3.55;;;;;;;26.21;100.00;94820.28;4985666;28;20346;-91
2022/07/03 07:16:41;;;;;;;9.88;3.83;;;;;;;26.04;100.00;94822.28;5000622;28;20038;-91
2022/07/03 07:19:07;;;;;;;8.27;3.50;;;;;;;26.21;100.00;94821.09;5000352;28;20017;-92
2022/07/03 07:21:32;;;;;;;12.93;3.58;;;;;;;26.37;100.00;94814.81;5001512;28;20072;-91
2022/07/03 07:23:57;;;;;;;13.52;3.53;;;;;;;26.39;100.00;94818.69;5001455;28;20025;-91
2022/07/03 07:26:23;;;;;;;5.93;3.30;;;;;;;26.55;100.00;94812.44;4985586;28;20021;-92
2022/07/03 07:28:48;;;;;;;11.95;3.05;;;;;;;26.66;100.00;94813.34;5001562;28;20120;-91
2022/07/03 07:32:07;;;;;;;10.25;3.25;;;;;;;26.88;100.00;94821.00;5001448;28;20022;-91
2022/07/03 07:34:32;;;;;;;9.13;3.08;;;;;;;26.93;100.00;94816.09;4961830;28;20086;-91
2022/07/03 07:37:33;;;;;;;6.85;2.85;;;;;;;27.03;100.00;94803.19;4977790;28;20083;-93
2022/07/03 07:40:25;;;;;;;9.38;2.90;;;;;;;27.30;100.00;94811.97;4977598;28;20139;-92
2022/07/03 07:42:59;;;;;;;10.32;3.25;;;;;;;27.29;100.00;94809.66;4920123;29;20040;-91
2022/07/03 07:45:26;;;;;;;6.55;2.90;;;;;;;27.49;100.00;94813.75;4969681;28;20057;-91
2022/07/03 07:47:51;;;;;;;9.35;3.08;;;;;;;27.57;100.00;94813.88;5001184;28;20034;-92
2022/07/03 07:57:00;;;;;;;1355.47;805.90;;;;;;;27.46;96.01;94809.13;5018345;28;19929;-91
2022/07/03 07:59:25;;;;;;;116.90;38.40;;;;;;;27.52;89.78;94807.66;5000966;28;20034;-91
2022/07/03 08:07:25;;;;;;;3.97;2.20;;;;;;;27.72;68.01;94807.53;5003391;28;20045;-93
2022/07/03 08:10:18;;;;;;;45.55;11.85;;;;;;;27.91;63.94;94805.78;4984580;28;20025;-92
2022/07/03 08:12:44;;;;;;;263.95;35.83;;;;;;;27.70;56.11;94801.75;5000614;28;20030;-92
2022/07/03 08:15:22;;;;;;;27.00;7.03;;;;;;;27.90;55.95;94804.25;5000567;28;20104;-91
2022/07/03 08:18:30;;;;;;;34.63;7.93;;;;;;;28.13;58.21;94803.34;5000069;28;20041;-92
2022/07/03 08:21:42;;;;;;;14.85;4.75;;;;;;;28.07;61.00;94802.91;5017857;28;20480;-91
2022/07/03 08:27:37;;;;;;;23.70;9.35;;;;;;;28.43;63.23;94789.00;5017747;28;20413;-91
2022/07/03 08:30:04;;;;;;;12.18;4.25;;;;;;;28.51;64.27;94806.75;4984015;28;20080;-93
2022/07/03 08:33:02;;;;;;;10.63;3.63;;;;;;;28.61;64.19;94803.38;5000141;28;20033;-92
2022/07/03 08:38:19;;;;;;;23.25;11.52;;;;;;;28.61;61.86;94791.81;4989403;28;20033;-89
2022/07/03 08:40:45;;;;;;;13.57;2.78;;;;;;;28.32;61.08;94803.16;5006413;28;20029;-87
2022/07/03 08:43:36;;;;;;;9.48;2.92;;;;;;;28.76;58.26;94798.88;4977755;28;20037;-88
2022/07/03 08:46:03;;;;;;;7.57;2.40;;;;;;;28.88;56.05;94800.53;4977207;28;20057;-88
2022/07/03 08:49:09;;;;;;;11.63;3.15;;;;;;;28.96;55.79;94801.34;4981075;28;20034;-89
2022/07/03 08:51:45;;;;;;;6.88;2.60;;;;;;;28.89;60.26;94791.28;4997621;28;20026;-89
2022/07/03 08:55:22;;;;;;;10.30;2.53;;;;;;;29.15;61.54;94803.00;4980552;28;20030;-89
2022/07/03 08:57:48;;;;;;;9.27;2.47;;;;;;;29.23;60.40;94803.81;4919034;29;20039;-88
2022/07/03 09:00:18;;;;;;;5.93;2.47;;;;;;;29.20;59.19;94810.72;4919266;29;20052;-89
2022/07/03 09:02:56;;;;;;;10.25;3.00;;;;;;;29.28;59.17;94802.69;4942908;28;20038;-88
2022/07/03 09:05:35;;;;;;;6.32;2.63;;;;;;;28.88;57.79;94811.31;4968753;28;20037;-88
2022/07/03 09:08:09;;;;;;;6.60;2.50;;;;;;;29.23;61.25;94806.50;4956049;29;20043;-89
2022/07/03 09:10:35;;;;;;;5.85;2.47;;;;;;;29.39;61.53;94798.09;4997899;28;20374;-89
2022/07/03 09:13:00;;;;;;;8.05;2.42;;;;;;;29.60;57.49;94796.66;5017478;28;20037;-89
2022/07/03 09:15:51;;;;;;;3.60;2.40;;;;;;;29.62;58.08;94799.75;4999825;28;20445;-88
2022/07/03 09:18:57;;;;;;;5.22;2.58;;;;;;;29.66;58.38;94797.84;4997268;28;20096;-89
2022/07/03 09:21:46;;;;;;;9.30;2.78;;;;;;;29.77;61.14;94797.91;4997280;28;20036;-89
2022/07/03 09:28:01;;;;;;;5.88;2.58;;;;;;;30.02;59.02;94795.25;4941312;29;20031;-90
2022/07/03 09:30:26;;;;;;;9.13;2.25;;;;;;;30.12;58.26;94801.06;4957309;28;20042;-88
2022/07/03 09:32:52;;;;;;;7.72;2.10;;;;;;;30.07;56.44;94785.25;4966636;28;20156;-88
2022/07/03 09:36:00;;;;;;;8.63;2.38;;;;;;;30.21;54.75;94792.59;4943971;28;20034;-88
2022/07/03 09:52:37;;;;;;;8.88;2.60;;;;;;;30.03;51.89;94787.94;4917454;29;20127;-88
2022/07/03 09:55:08;;;;;;;3.80;2.35;;;;;;;30.45;51.24;94793.78;4930179;29;20130;-89
2022/07/03 09:57:56;;;;;;;11.70;2.80;;;;;;;30.23;53.42;94787.59;4957104;28;20047;-89
2022/07/03 10:00:30;;;;;;;10.73;2.60;;;;;;;30.55;51.51;94797.63;4983527;28;20050;-88
2022/07/03 10:03:03;;;;;;;9.27;2.30;;;;;;;30.52;49.84;94796.47;4995746;28;20034;-89
2022/07/03 10:05:33;;;;;;;8.55;2.38;;;;;;;30.56;50.51;94796.47;4979704;28;20058;-89
2022/07/03 10:08:07;;;;;;;6.72;2.60;;;;;;;30.74;55.01;94778.31;4979816;28;20128;-90
2022/07/03 10:10:35;;;;;;;8.02;2.78;;;;;;;30.55;53.27;94794.94;4995971;28;20488;-88
2022/07/03 10:13:01;;;;;;;5.68;2.50;;;;;;;30.70;50.91;94790.31;4997063;28;20026;-89
2022/07/03 10:15:29;;;;;;;8.40;2.85;;;;;;;30.31;51.89;94781.00;4979839;28;20125;-88
2022/07/03 10:17:58;;;;;;;4.47;2.38;;;;;;;30.73;52.85;94786.84;4979984;28;20030;-89
2022/07/03 10:20:25;;;;;;;7.05;2.47;;;;;;;30.94;50.21;94783.34;4996063;28;20061;-88
2022/07/03 10:23:08;;;;;;;7.20;2.40;;;;;;;30.68;52.06;94784.50;4990351;28;20399;-88
2022/07/03 10:28:45;;;;;;;8.60;2.67;;;;;;;30.97;50.93;94774.44;4984285;28;20085;-88
2022/07/03 10:51:55;;;;;;;5.88;2.60;;;;;;;31.38;52.04;94761.59;4918081;29;20024;-90
2022/07/03 10:55:10;;;;;;;5.85;2.47;;;;;;;31.62;50.24;94762.63;4936833;29;20472;-90
2022/07/03 11:02:20;;;;;;;;;;;;;;;;;;;;;
2022/07/03 11:35:46;;;;;;;8.68;2.58;;;;;;;32.24;45.99;94737.91;4864142;29;20046;-91
2022/07/03 11:38:14;;;;;;;10.98;2.65;;;;;;;31.72;45.69;94733.94;4868861;29;20124;-92
2022/07/03 11:40:42;;;;;;;6.15;2.33;;;;;;;31.70;46.85;94731.63;4974459;28;20084;-91
2022/07/03 11:43:07;;;;;;;8.93;2.45;;;;;;;31.85;46.25;94728.88;4985646;28;20029;-90
2022/07/03 11:45:33;;;;;;;7.63;2.40;;;;;;;32.16;46.77;94732.53;5001398;28;20411;-92
2022/07/03 11:47:58;;;;;;;6.40;2.25;;;;;;;32.47;46.03;94734.63;4985467;28;20049;-90
2022/07/03 11:50:40;;;;;;;5.38;2.08;;;;;;;32.59;45.74;94725.22;5001406;28;20029;-93
2022/07/03 11:53:22;;;;;;;9.75;2.40;;;;;;;32.50;43.81;94725.69;4985412;28;20022;-90
2022/07/03 11:56:08;;;;;;;6.90;1.98;;;;;;;32.86;44.01;94724.56;5001027;28;20339;-91
2022/07/03 12:12:10;;;;;;;7.03;1.90;;;;;;;32.88;46.54;94724.19;4972808;28;20073;-93
2022/07/03 12:14:43;;;;;;;4.30;2.00;;;;;;;33.12;44.97;94727.81;4997471;28;20018;-92
2022/07/03 12:17:24;;;;;;;;;;;;;;;33.19;43.55;94718.81;4981774;28;20026;-93
2022/07/03 12:23:22;;;;;;;7.40;2.13;;;;;;;32.73;44.36;94716.19;4960566;28;20092;-90
2022/07/03 12:29:29;;;;;;;10.27;2.65;;;;;;;32.76;45.38;94723.50;4938304;29;20047;-91
2022/07/03 12:31:54;;;;;;;8.07;2.90;;;;;;;32.50;46.26;94714.84;4922607;29;20091;-91
2022/07/03 12:35:08;;;;;;;;;;;;;;;;;;;;;
2022/07/03 12:38:30;;;;;;;4.88;2.13;;;;;;;32.54;44.58;94726.41;5017555;28;20022;-91
2022/07/03 12:41:39;;;;;;;10.50;2.47;;;;;;;32.30;42.67;94720.81;5000021;28;20095;-91
2022/07/03 12:44:35;;;;;;;4.03;2.28;;;;;;;32.76;45.86;94720.03;5017293;28;20512;-92
2022/07/03 12:47:50;;;;;;;7.18;2.60;;;;;;;33.07;45.51;94707.31;4983944;28;20120;-89
2022/07/03 12:54:37;;;;;;;4.88;2.70;;;;;;;33.36;44.95;94709.66;5017346;28;20131;-90
2022/07/03 13:00:24;;;;;;;6.10;2.88;;;;;;;32.93;46.76;94700.13;4939763;28;20129;-92
2022/07/03 13:02:50;;;;;;;8.60;2.60;;;;;;;33.03;44.82;94703.88;4922132;29;20048;-91
2022/07/03 13:05:23;;;;;;;6.68;2.58;;;;;;;33.24;45.14;94699.34;4906240;29;20036;-91
2022/07/03 13:08:12;;;;;;;9.13;2.42;;;;;;;33.58;44.23;94686.91;4956943;28;20037;-92
2022/07/03 13:10:37;;;;;;;5.75;2.65;;;;;;;33.72;44.26;94688.69;4977134;28;20134;-91
2022/07/03 13:13:03;;;;;;;7.78;2.33;;;;;;;33.21;44.79;94692.03;4979750;28;20026;-92
2022/07/03 13:15:32;;;;;;;6.43;2.22;;;;;;;33.35;44.40;94689.13;4963810;28;20136;-91
2022/07/03 13:18:11;;;;;;;6.32;2.42;;;;;;;33.45;42.97;94689.44;4996439;28;20030;-91
2022/07/03 13:20:37;;;;;;;5.63;2.13;;;;;;;33.51;40.27;94688.56;4964334;28;20032;-90
2022/07/03 13:23:04;;;;;;;5.22;2.65;;;;;;;33.54;42.10;94695.88;4979726;28;20350;-92
2022/07/03 13:25:30;;;;;;;7.22;2.40;;;;;;;32.88;44.06;94700.50;4980082;28;20037;-89
2022/07/03 13:28:07;;;;;;;5.05;2.42;;;;;;;32.71;45.05;94694.09;4997193;28;20037;-89
2022/07/03 13:30:33;;;;;;;8.48;2.85;;;;;;;33.60;43.17;94688.06;4992194;28;20026;-88
2022/07/03 13:36:32;;;;;;;6.60;2.47;;;;;;;34.76;39.79;94688.94;4917996;29;20114;-89
2022/07/03 13:39:09;;;;;;;5.90;2.33;;;;;;;34.49;40.61;94692.50;4918665;29;20047;-89
2022/07/03 13:41:35;;;;;;;5.82;2.22;;;;;;;34.31;41.89;94681.94;4918779;29;20430;-88
2022/07/03 13:44:22;;;;;;;7.47;2.53;;;;;;;34.78;40.51;94683.84;4918033;29;20044;-88
2022/07/03 13:46:48;;;;;;;6.47;2.45;;;;;;;34.53;41.09;94682.34;4967557;28;20459;-89
2022/07/03 13:49:20;;;;;;;7.07;2.10;;;;;;;34.95;38.82;94673.81;4997341;28;20030;-88
2022/07/03 13:51:45;;;;;;;9.40;2.45;;;;;;;34.68;39.43;94677.44;4997635;28;20072;-89
2022/07/03 13:54:11;;;;;;;7.85;2.40;;;;;;;34.98;39.17;94672.19;4997254;28;20078;-89
2022/07/03 13:56:36;;;;;;;4.00;2.22;;;;;;;35.02;38.20;94675.66;4997148;28;20073;-89
2022/07/03 13:59:01;;;;;;;5.75;2.08;;;;;;;34.80;40.98;94672.56;4997339;28;20037;-89
2022/07/03 14:04:48;;;;;;;5.00;2.40;;;;;;;35.01;38.05;94673.31;5013431;28;20402;-89
2022/07/03 14:07:14;;;;;;;8.23;2.38;;;;;;;35.23;38.75;94666.28;4999586;28;20029;-89
2022/07/03 14:09:39;;;;;;;7.03;3.03;;;;;;;34.97;39.38;94665.22;4999364;28;20084;-89
2022/07/03 14:12:05;;;;;;;6.10;2.40;;;;;;;34.50;39.17;94669.59;4999809;28;20327;-89
2022/07/03 14:14:31;;;;;;;9.95;2.50;;;;;;;35.00;38.29;94669.81;4999433;28;20494;-89
2022/07/03 14:16:56;;;;;;;5.13;1.98;;;;;;;36.15;38.73;94659.59;4999271;28;20026;-89
2022/07/03 14:19:22;;;;;;;5.05;2.20;;;;;;;35.69;38.71;94659.47;4999240;28;20025;-89
2022/07/03 14:21:47;;;;;;;5.35;2.70;;;;;;;35.61;37.81;94659.66;4982977;28;20022;-89
2022/07/03 14:24:12;;;;;;;5.10;2.22;;;;;;;35.41;36.90;94659.69;4983076;28;20378;-88
2022/07/03 14:34:52;;;;;;;3.58;2.20;;;;;;;38.73;32.58;94663.78;5005669;28;20072;-90